Lovilia, Iowa
Current Conditions -  °F | °C
As of 10:35 AM on Friday 24 Oct 2014 (Local Time) from KOXV Reporting Station
Haze Haze  
Wind Chill: 59°   Ceiling: 300
Heat Index: 59°   Visibility: 1.5mi
Dew Point: 59°   Wind: 13mph
Humidity: 100%   Direction: 180°S
Pressure: 29.98"   Gusts: NA
Location:  41.14°N, 92.9°W
Report Text: KOXV 241535Z AUTO 18011KT 1 1/2SM BR OVC003 15/15 A2998 RMK AO2
Loading
Personal Weather Stations






























Interactive Weather Map
Tropical Storm Tracking
New forecast layout! Learn more

10-Day Weather Forecast

Advertisements
Track Severe Weather on mobile